Fesco Vladimir — 5BSL2 — position and weather

sailwx.info

Track history (hours):
 
Tides and Currents Weather Stations Pressure Air Temp Water Temp Dewpoint Dewpoint Depression Visibility Wind Speed Wind Dir Waves Ship Positions

Fesco Vladimir

Last reported at 2015-May-03 21:31 UTC. Time now 2015-May-04 06:58 UTC.
Position N 33°40' W 076°58'.

Length 184 m; draft 8.1 m.

Type: Cargo ship. MMSI: 209777000.

Date/timePositionNaut miles runAvg speedWind from/ knotsBaromVisibWave heightAir tempDewpointWater temp
2015-May-03 21:31N 33°40' W 076°58'14315.1
2015-May-03 12:04N 32°41' W 079°33'815.3
2015-May-03 11:31N 32°41' W 079°43'1212.9
2015-May-03 10:33N 32°47' W 079°55'62 2.8
2015-May-02 12:33N 31°57' W 080°39'1312.8
2015-May-02 11:33N 32°02' W 080°53'1010.1
2015-May-02 10:33N 32°05' W 081°05'4 4.1
2015-May-02 09:32N 32°08' W 081°08'0 0.0
2015-May-02 08:32N 32°08' W 081°08'0 0.0
2015-May-02 07:33N 32°08' W 081°08'0 0.0
2015-May-02 06:33N 32°08' W 081°08'0 0.0
2015-May-02 05:33N 32°08' W 081°08'0 0.0
2015-May-02 04:33N 32°08' W 081°08'0 0.0
2015-May-02 03:33N 32°08' W 081°08'0 0.0
2015-May-02 02:34N 32°08' W 081°08'0 0.0
2015-May-02 01:33N 32°08' W 081°08'0 0.0
2015-May-02 00:33N 32°08' W 081°08'0 0.0
2015-May-01 23:33N 32°08' W 081°08'0 0.0
2015-May-01 22:33N 32°08' W 081°08'0 0.0
2015-May-01 21:33N 32°08' W 081°08'0 0.0
2015-May-01 20:33N 32°08' W 081°08'0 0.0
2015-May-01 19:33N 32°08' W 081°08'0 0.0
2015-May-01 18:33N 32°08' W 081°08'0 0.0
2015-May-01 17:33N 32°08' W 081°08'0 0.0
2015-May-01 16:33N 32°08' W 081°08'0 0.3
2015-May-01 15:34N 32°08' W 081°08'5 4.9
2015-May-01 14:33N 32°05' W 081°04'8 8.3
2015-May-01 13:33N 32°02' W 080°54'1312.7
2015-May-01 12:33N 31°57' W 080°41'12 9.8
2015-May-01 11:22N 31°58' W 080°27'911.2
2015-May-01 10:33N 31°60' W 080°16'24715.3
2015-Apr-30 18:22N 34°21' W 076°14'312 7.6
2015-Apr-29 01:13N 39°14' W 074°01'1217.9
2015-Apr-29 00:33N 39°26' W 073°57'1817.7
2015-Apr-28 23:33N 39°43' W 073°53'1817.8
2015-Apr-28 22:33N 40°01' W 073°51'1413.5
2015-Apr-28 21:33N 40°15' W 073°49'10 9.3
2015-Apr-28 20:30N 40°25' W 073°49'9 9.2
2015-Apr-28 19:33N 40°30' W 073°57'1111.1
2015-Apr-28 18:33N 40°39' W 074°07'3 3.0
2015-Apr-28 17:31N 40°41' W 074°09'0 0.0
2015-Apr-28 16:31N 40°41' W 074°09'0 0.0
2015-Apr-28 15:31N 40°41' W 074°09'0 0.0
2015-Apr-28 14:31N 40°41' W 074°09'0 0.0
2015-Apr-28 13:25N 40°41' W 074°09'0 0.0
2015-Apr-28 12:31N 40°41' W 074°09'0 0.0
2015-Apr-28 11:31N 40°41' W 074°09'0 0.0
2015-Apr-28 10:28N 40°41' W 074°09'0 0.0
2015-Apr-28 09:32N 40°41' W 074°09'0 0.0
2015-Apr-28 08:31N 40°41' W 074°09'0 0.0
2015-Apr-28 07:25N 40°41' W 074°09'0 0.0
2015-Apr-28 06:31N 40°41' W 074°09'0 0.0
2015-Apr-28 05:28N 40°41' W 074°09'0 0.0
2015-Apr-28 04:31N 40°41' W 074°09'0 0.0
2015-Apr-28 03:31N 40°41' W 074°09'0 0.0
2015-Apr-28 02:31N 40°41' W 074°09'0 0.0
2015-Apr-28 01:31N 40°41' W 074°09'0 0.0
2015-Apr-28 00:31N 40°41' W 074°09'0 0.0
2015-Apr-27 23:31N 40°41' W 074°09'0 0.0
2015-Apr-27 22:25N 40°41' W 074°09'0 0.0
2015-Apr-27 21:28N 40°41' W 074°09'0 0.0
2015-Apr-27 20:31N 40°41' W 074°09'0 0.0
2015-Apr-27 19:33N 40°41' W 074°09'3 2.8
2015-Apr-27 18:34N 40°39' W 074°08'6 5.6
2015-Apr-27 17:33N 40°35' W 074°02'1110.8
2015-Apr-27 16:34N 40°28' W 073°51'9 9.1
2015-Apr-27 15:32N 40°29' W 073°39'2 0.8
2015-Apr-27 13:18N 40°28' W 073°37'1012.9
2015-Apr-27 12:29N 40°29' W 073°24'2116.3
2015-Apr-27 11:11N 40°30' W 072°56'915.2
2015-Apr-27 10:33N 40°30' W 072°43'1515.3
2015-Apr-27 09:34N 40°31' W 072°23'1515.3
2015-Apr-27 08:34N 40°31' W 072°03'1515.2
2015-Apr-27 07:34N 40°32' W 071°43'1515.1
2015-Apr-27 06:34N 40°32' W 071°23'1514.7
2015-Apr-27 05:34N 40°32' W 071°04'1514.7
2015-Apr-27 04:34N 40°32' W 070°45'1515.0
2015-Apr-27 03:33N 40°33' W 070°25'3215.3
2015-Apr-27 01:29N 40°34' W 069°43'  
Track history (hours):
 
Tides and Currents Weather Stations Pressure Air Temp Water Temp Dewpoint Dewpoint Depression Visibility Wind Speed Wind Dir Waves Ship Positions

Fesco Vladimir

Last reported at 2015-May-03 21:31 UTC. Time now 2015-May-04 06:58 UTC.
Position N 33°40' W 076°58'.

Length 184 m; draft 8.1 m.

Type: Cargo ship. MMSI: 209777000.

Date/timePositionNaut miles runAvg speedWind from/ knotsBaromVisibWave heightAir tempDewpointWater temp
2015-May-03 21:31N 33°40' W 076°58'14315.1
2015-May-03 12:04N 32°41' W 079°33'815.3
2015-May-03 11:31N 32°41' W 079°43'1212.9
2015-May-03 10:33N 32°47' W 079°55'62 2.8
2015-May-02 12:33N 31°57' W 080°39'1312.8
2015-May-02 11:33N 32°02' W 080°53'1010.1
2015-May-02 10:33N 32°05' W 081°05'4 4.1
2015-May-02 09:32N 32°08' W 081°08'0 0.0
2015-May-02 08:32N 32°08' W 081°08'0 0.0
2015-May-02 07:33N 32°08' W 081°08'0 0.0
2015-May-02 06:33N 32°08' W 081°08'0 0.0
2015-May-02 05:33N 32°08' W 081°08'0 0.0
2015-May-02 04:33N 32°08' W 081°08'0 0.0
2015-May-02 03:33N 32°08' W 081°08'0 0.0
2015-May-02 02:34N 32°08' W 081°08'0 0.0
2015-May-02 01:33N 32°08' W 081°08'0 0.0
2015-May-02 00:33N 32°08' W 081°08'0 0.0
2015-May-01 23:33N 32°08' W 081°08'0 0.0
2015-May-01 22:33N 32°08' W 081°08'0 0.0
2015-May-01 21:33N 32°08' W 081°08'0 0.0
2015-May-01 20:33N 32°08' W 081°08'0 0.0
2015-May-01 19:33N 32°08' W 081°08'0 0.0
2015-May-01 18:33N 32°08' W 081°08'0 0.0
2015-May-01 17:33N 32°08' W 081°08'0 0.0
2015-May-01 16:33N 32°08' W 081°08'0 0.3
2015-May-01 15:34N 32°08' W 081°08'5 4.9
2015-May-01 14:33N 32°05' W 081°04'8 8.3
2015-May-01 13:33N 32°02' W 080°54'1312.7
2015-May-01 12:33N 31°57' W 080°41'12 9.8
2015-May-01 11:22N 31°58' W 080°27'911.2
2015-May-01 10:33N 31°60' W 080°16'24715.3
2015-Apr-30 18:22N 34°21' W 076°14'312 7.6
2015-Apr-29 01:13N 39°14' W 074°01'1217.9
2015-Apr-29 00:33N 39°26' W 073°57'1817.7
2015-Apr-28 23:33N 39°43' W 073°53'1817.8
2015-Apr-28 22:33N 40°01' W 073°51'1413.5
2015-Apr-28 21:33N 40°15' W 073°49'10 9.3
2015-Apr-28 20:30N 40°25' W 073°49'9 9.2
2015-Apr-28 19:33N 40°30' W 073°57'1111.1
2015-Apr-28 18:33N 40°39' W 074°07'3 3.0
2015-Apr-28 17:31N 40°41' W 074°09'0 0.0
2015-Apr-28 16:31N 40°41' W 074°09'0 0.0
2015-Apr-28 15:31N 40°41' W 074°09'0 0.0
2015-Apr-28 14:31N 40°41' W 074°09'0 0.0
2015-Apr-28 13:25N 40°41' W 074°09'0 0.0
2015-Apr-28 12:31N 40°41' W 074°09'0 0.0
2015-Apr-28 11:31N 40°41' W 074°09'0 0.0
2015-Apr-28 10:28N 40°41' W 074°09'0 0.0
2015-Apr-28 09:32N 40°41' W 074°09'0 0.0
2015-Apr-28 08:31N 40°41' W 074°09'0 0.0
2015-Apr-28 07:25N 40°41' W 074°09'0 0.0
2015-Apr-28 06:31N 40°41' W 074°09'0 0.0
2015-Apr-28 05:28N 40°41' W 074°09'0 0.0
2015-Apr-28 04:31N 40°41' W 074°09'0 0.0
2015-Apr-28 03:31N 40°41' W 074°09'0 0.0
2015-Apr-28 02:31N 40°41' W 074°09'0 0.0
2015-Apr-28 01:31N 40°41' W 074°09'0 0.0
2015-Apr-28 00:31N 40°41' W 074°09'0 0.0
2015-Apr-27 23:31N 40°41' W 074°09'0 0.0
2015-Apr-27 22:25N 40°41' W 074°09'0 0.0
2015-Apr-27 21:28N 40°41' W 074°09'0 0.0
2015-Apr-27 20:31N 40°41' W 074°09'0 0.0
2015-Apr-27 19:33N 40°41' W 074°09'3 2.8
2015-Apr-27 18:34N 40°39' W 074°08'6 5.6
2015-Apr-27 17:33N 40°35' W 074°02'1110.8
2015-Apr-27 16:34N 40°28' W 073°51'9 9.1
2015-Apr-27 15:32N 40°29' W 073°39'2 0.8
2015-Apr-27 13:18N 40°28' W 073°37'1012.9
2015-Apr-27 12:29N 40°29' W 073°24'2116.3
2015-Apr-27 11:11N 40°30' W 072°56'915.2
2015-Apr-27 10:33N 40°30' W 072°43'1515.3
2015-Apr-27 09:34N 40°31' W 072°23'1515.3
2015-Apr-27 08:34N 40°31' W 072°03'1515.2
2015-Apr-27 07:34N 40°32' W 071°43'1515.1
2015-Apr-27 06:34N 40°32' W 071°23'1514.7
2015-Apr-27 05:34N 40°32' W 071°04'1514.7
2015-Apr-27 04:34N 40°32' W 070°45'1515.0
2015-Apr-27 03:33N 40°33' W 070°25'3215.3
2015-Apr-27 01:29N 40°34' W 069°43'  

Dump ship's entire track history